createdAt,value
2023-04-03T00:00:32.482Z,1.50
2023-04-03T00:02:56.021Z,1.40
2023-04-03T00:05:19.523Z,1.40
2023-04-03T00:07:42.821Z,1.30
2023-04-03T00:10:07.596Z,1.40
2023-04-03T00:12:30.942Z,1.30
2023-04-03T00:14:54.318Z,1.30
2023-04-03T00:17:18.882Z,1.30
2023-04-03T00:19:42.200Z,1.20
2023-04-03T00:22:05.582Z,1.20
2023-04-03T00:24:29.136Z,1.20
2023-04-03T00:26:52.406Z,1.20
2023-04-03T00:29:16.556Z,1.30
2023-04-03T00:31:39.825Z,1.20
2023-04-03T00:34:04.530Z,1.10
2023-04-03T00:36:27.969Z,1.10
2023-04-03T00:38:51.434Z,1.10
2023-04-03T00:41:14.782Z,1.10
2023-04-03T00:43:38.450Z,1.00
2023-04-03T00:46:02.648Z,1.00
2023-04-03T00:48:31.544Z,1.00
2023-04-03T00:50:57.216Z,1.00
2023-04-03T00:53:24.639Z,1.00
2023-04-03T00:55:50.640Z,1.00
2023-04-03T00:58:15.860Z,1.00
2023-04-03T01:00:42.542Z,1.00
2023-04-03T01:03:06.134Z,1.00
2023-04-03T01:05:29.857Z,1.00
2023-04-03T01:07:55.583Z,0.90
2023-04-03T01:10:20.591Z,0.90
2023-04-03T01:12:47.456Z,0.80
2023-04-03T01:15:14.649Z,0.70
2023-04-03T01:17:41.866Z,0.80
2023-04-03T01:21:09.969Z,0.80
2023-04-03T01:23:56.794Z,0.80
2023-04-03T01:26:20.946Z,0.80
2023-04-03T01:28:44.190Z,0.70
2023-04-03T01:31:16.715Z,0.70
2023-04-03T01:33:43.214Z,0.70
2023-04-03T01:36:08.629Z,0.60
2023-04-03T01:38:32.294Z,0.70
2023-04-03T01:40:55.766Z,0.60
2023-04-03T01:43:19.460Z,0.70
2023-04-03T01:45:43.072Z,0.70
2023-04-03T01:48:06.742Z,0.70
2023-04-03T01:50:31.430Z,0.70
2023-04-03T01:52:54.710Z,0.60
2023-04-03T01:55:18.228Z,0.60
2023-04-03T01:57:41.538Z,0.50
2023-04-03T02:00:06.181Z,0.60
2023-04-03T02:02:36.277Z,0.70
2023-04-03T02:04:59.719Z,0.90
2023-04-03T02:07:24.362Z,1.00
2023-04-03T02:09:47.620Z,1.10
2023-04-03T02:12:11.153Z,1.30
2023-04-03T02:14:34.461Z,1.60
2023-04-03T02:16:58.070Z,1.70
2023-04-03T02:19:21.588Z,2.00
2023-04-03T02:21:45.567Z,2.10
2023-04-03T02:24:10.376Z,2.00
2023-04-03T02:26:33.677Z,2.10
2023-04-03T02:28:56.987Z,2.20
2023-04-03T02:31:20.499Z,2.30
2023-04-03T02:33:44.312Z,2.30
2023-04-03T02:36:11.341Z,2.30
2023-04-03T02:38:38.137Z,2.30
2023-04-03T02:41:05.338Z,2.40
2023-04-03T02:43:29.215Z,2.50
2023-04-03T02:45:52.728Z,2.50
2023-04-03T02:48:17.660Z,2.50
2023-04-03T02:50:40.937Z,2.50
2023-04-03T02:53:04.289Z,2.50
2023-04-03T02:55:27.594Z,2.50
2023-04-03T02:57:54.170Z,2.50
2023-04-03T03:00:18.118Z,2.60
2023-04-03T03:02:41.501Z,2.60
2023-04-03T03:05:05.850Z,2.60
2023-04-03T03:07:29.194Z,2.50
2023-04-03T03:09:52.415Z,2.50
2023-04-03T03:12:15.749Z,2.50
2023-04-03T03:14:41.578Z,2.40
2023-04-03T03:17:05.622Z,2.50
2023-04-03T03:19:28.906Z,2.50
2023-04-03T03:21:53.027Z,2.50
2023-04-03T03:24:16.844Z,2.50
2023-04-03T03:26:40.323Z,2.50
2023-04-03T03:29:04.050Z,2.50
2023-04-03T03:31:28.868Z,2.40
2023-04-03T03:33:52.339Z,2.40
2023-04-03T03:36:16.497Z,2.40
2023-04-03T03:38:40.231Z,2.50
2023-04-03T03:41:03.577Z,2.50
2023-04-03T03:43:29.806Z,2.40
2023-04-03T03:45:54.407Z,2.40
2023-04-03T03:48:21.927Z,2.40
2023-04-03T03:50:45.437Z,2.40
2023-04-03T03:53:09.314Z,2.50
2023-04-03T03:55:32.937Z,2.40
2023-04-03T03:57:56.548Z,2.40
2023-04-03T04:00:21.120Z,2.40
2023-04-03T04:02:50.319Z,2.30
2023-04-03T04:05:18.923Z,2.30
2023-04-03T04:07:42.210Z,2.30
2023-04-03T04:10:07.337Z,2.30
2023-04-03T04:12:30.788Z,2.30
2023-04-03T04:14:54.720Z,2.20
2023-04-03T04:17:18.417Z,2.20
2023-04-03T04:19:42.011Z,2.20
2023-04-03T04:22:07.185Z,2.20
2023-04-03T04:24:30.810Z,2.20
2023-04-03T04:26:54.457Z,2.20
2023-04-03T04:29:18.920Z,2.20
2023-04-03T04:31:45.426Z,2.10
2023-04-03T04:34:09.163Z,2.10
2023-04-03T04:36:34.025Z,2.10
2023-04-03T04:38:59.487Z,2.10
2023-04-03T04:41:24.303Z,2.10
2023-04-03T04:43:48.656Z,2.10
2023-04-03T04:46:13.731Z,2.10
2023-04-03T04:48:42.442Z,2.10
2023-04-03T04:51:07.292Z,2.00
2023-04-03T04:53:33.018Z,2.00
2023-04-03T04:55:57.838Z,2.00
2023-04-03T04:58:22.240Z,2.00
2023-04-03T05:00:45.927Z,2.00
2023-04-03T05:03:09.318Z,2.00
2023-04-03T05:05:32.800Z,2.00
2023-04-03T05:07:56.050Z,1.90
2023-04-03T05:10:19.782Z,1.90
2023-04-03T05:12:45.109Z,2.00
2023-04-03T05:15:10.643Z,1.90
2023-04-03T05:17:34.248Z,1.90
2023-04-03T05:19:58.719Z,1.90
2023-04-03T05:22:23.910Z,1.90
2023-04-03T05:24:49.971Z,2.00
2023-04-03T05:27:14.422Z,1.90
2023-04-03T05:29:45.197Z,1.90
2023-04-03T05:32:13.377Z,1.90
2023-04-03T05:34:36.905Z,1.90
2023-04-03T05:37:00.879Z,1.90
2023-04-03T05:39:25.548Z,1.90
2023-04-03T05:41:48.917Z,1.80
2023-04-03T05:44:12.330Z,1.80
2023-04-03T05:46:37.672Z,1.90
2023-04-03T05:49:03.802Z,1.90
2023-04-03T05:51:36.142Z,2.00
2023-04-03T05:54:15.868Z,2.00
2023-04-03T05:56:39.964Z,2.00
2023-04-03T05:59:03.341Z,2.00
2023-04-03T06:01:27.408Z,2.00
2023-04-03T06:03:52.435Z,2.00
2023-04-03T06:06:16.737Z,2.10
2023-04-03T06:08:40.409Z,2.10
2023-04-03T06:11:04.220Z,2.00
2023-04-03T06:13:28.020Z,2.10
2023-04-03T06:15:51.514Z,2.10
2023-04-03T06:18:15.297Z,2.20
2023-04-03T06:20:40.316Z,2.20
2023-04-03T06:23:03.953Z,2.30
2023-04-03T06:25:27.637Z,2.30
2023-04-03T06:27:51.045Z,2.30
2023-04-03T06:30:14.906Z,2.50
2023-04-03T06:32:38.537Z,2.60
2023-04-03T06:35:02.255Z,2.80
2023-04-03T06:37:29.157Z,2.90
2023-04-03T06:39:52.544Z,3.00
2023-04-03T06:42:15.912Z,3.10
2023-04-03T06:44:55.051Z,3.20
2023-04-03T06:47:19.376Z,3.30
2023-04-03T06:49:43.724Z,3.50
2023-04-03T06:52:07.402Z,3.60
2023-04-03T06:54:32.656Z,3.70
2023-04-03T06:56:56.566Z,3.70
2023-04-03T06:59:20.660Z,4.00
2023-04-03T07:01:44.373Z,4.10
2023-04-03T07:04:07.704Z,4.30
2023-04-03T07:06:32.026Z,4.20
2023-04-03T07:08:55.918Z,4.20
2023-04-03T07:11:21.424Z,4.50
2023-04-03T07:13:44.917Z,4.50
2023-04-03T07:16:09.738Z,4.50
2023-04-03T07:18:33.484Z,4.50
2023-04-03T07:20:56.818Z,4.60
2023-04-03T07:23:20.250Z,4.90
2023-04-03T07:25:46.076Z,4.50
2023-04-03T07:28:10.774Z,5.00
2023-04-03T07:30:34.011Z,5.00
2023-04-03T07:32:57.640Z,5.00
2023-04-03T07:35:21.434Z,5.20
2023-04-03T07:37:44.704Z,5.50
2023-04-03T07:40:10.947Z,5.40
2023-04-03T07:42:34.229Z,5.50
2023-04-03T07:44:59.278Z,5.50
2023-04-03T07:47:22.823Z,5.70
2023-04-03T07:49:46.232Z,5.80
2023-04-03T07:52:10.996Z,5.80
2023-04-03T07:54:34.213Z,5.70
2023-04-03T07:56:57.780Z,5.90
2023-04-03T07:59:21.905Z,5.90
2023-04-03T08:01:46.792Z,6.00
2023-04-03T08:04:10.201Z,6.30
2023-04-03T08:06:46.006Z,6.00
2023-04-03T08:09:10.366Z,6.10
2023-04-03T08:11:33.858Z,6.40
2023-04-03T08:13:57.331Z,6.50
2023-04-03T08:16:24.524Z,6.50
2023-04-03T08:18:50.284Z,6.60
2023-04-03T08:21:14.860Z,6.60
2023-04-03T08:23:38.624Z,6.60
2023-04-03T08:26:07.754Z,6.80
2023-04-03T08:28:31.236Z,7.20
2023-04-03T08:30:55.241Z,6.70
2023-04-03T08:33:18.558Z,6.80
2023-04-03T08:35:44.113Z,6.90
2023-04-03T08:38:07.631Z,6.70
2023-04-03T08:40:31.347Z,7.00
2023-04-03T08:43:11.585Z,7.10
2023-04-03T08:45:45.314Z,7.40
2023-04-03T08:48:15.054Z,7.20
2023-04-03T08:50:44.125Z,7.70
2023-04-03T08:53:13.853Z,7.50
2023-04-03T08:55:45.588Z,7.60
2023-04-03T08:58:13.885Z,7.60
2023-04-03T09:00:46.644Z,7.50
2023-04-03T09:03:15.440Z,7.40
2023-04-03T09:05:49.142Z,7.80
2023-04-03T09:08:24.853Z,7.80
2023-04-03T09:10:48.367Z,7.70
2023-04-03T09:13:22.329Z,8.00
2023-04-03T09:15:46.760Z,8.10
2023-04-03T09:18:21.193Z,8.40
2023-04-03T09:20:54.582Z,8.50
2023-04-03T09:23:29.052Z,8.40
2023-04-03T09:25:55.998Z,8.20
2023-04-03T09:28:19.244Z,8.50
2023-04-03T09:30:43.016Z,8.70
2023-04-03T09:33:08.068Z,8.80
2023-04-03T09:35:46.705Z,8.80
2023-04-03T09:38:23.263Z,8.40
2023-04-03T09:40:48.339Z,8.50
2023-04-03T09:43:28.783Z,8.60
2023-04-03T09:45:54.249Z,8.50
2023-04-03T09:48:21.010Z,8.40
2023-04-03T09:51:04.010Z,8.60
2023-04-03T09:53:34.480Z,8.70
2023-04-03T09:55:58.312Z,8.50
2023-04-03T09:58:42.738Z,8.40
2023-04-03T10:01:29.181Z,8.40
2023-04-03T10:04:08.395Z,8.70
2023-04-03T10:06:36.416Z,8.30
2023-04-03T10:09:05.476Z,8.90
2023-04-03T10:11:29.281Z,8.90
2023-04-03T10:14:00.373Z,8.50
2023-04-03T10:16:33.640Z,8.40
2023-04-03T10:19:27.198Z,8.50
2023-04-03T10:21:56.194Z,8.60
2023-04-03T10:24:29.351Z,8.80
2023-04-03T10:27:00.545Z,8.80
2023-04-03T10:29:41.964Z,9.20
2023-04-03T10:32:25.017Z,9.10
2023-04-03T10:34:58.462Z,9.00
2023-04-03T10:37:37.649Z,9.00
2023-04-03T10:40:13.043Z,8.90
2023-04-03T10:42:48.217Z,8.40
2023-04-03T10:45:25.278Z,8.50
2023-04-03T10:48:00.445Z,8.70
2023-04-03T10:50:42.068Z,9.00
2023-04-03T10:53:14.330Z,9.20
2023-04-03T10:55:49.181Z,9.40
2023-04-03T10:58:23.414Z,9.20
2023-04-03T11:00:51.280Z,9.30
2023-04-03T11:03:18.907Z,9.50
2023-04-03T11:05:46.110Z,9.60
2023-04-03T11:08:19.597Z,9.70
2023-04-03T11:10:47.999Z,10.20
2023-04-03T11:13:16.957Z,9.30
2023-04-03T11:15:40.891Z,9.50
2023-04-03T11:18:11.880Z,9.40
2023-04-03T11:20:38.677Z,9.40
2023-04-03T11:23:06.517Z,9.50
2023-04-03T11:25:34.582Z,9.90
2023-04-03T11:28:03.044Z,9.70
2023-04-03T11:30:32.569Z,9.70
2023-04-03T11:33:18.566Z,10.10
2023-04-03T11:35:46.899Z,10.00
2023-04-03T11:38:22.981Z,10.30
2023-04-03T11:40:47.041Z,10.20
2023-04-03T11:43:26.860Z,9.70
2023-04-03T11:45:59.842Z,10.00
2023-04-03T11:48:51.618Z,9.50
2023-04-03T11:51:48.274Z,10.00
2023-04-03T11:54:47.351Z,10.10
2023-04-03T11:58:04.824Z,10.20
2023-04-03T12:01:09.873Z,9.90
2023-04-03T12:04:10.158Z,9.80
2023-04-03T12:07:17.040Z,9.90
2023-04-03T12:10:31.162Z,10.00
2023-04-03T12:13:03.271Z,10.00
2023-04-03T12:15:54.842Z,9.70
2023-04-03T12:19:03.718Z,10.30
2023-04-03T12:22:10.563Z,10.40
2023-04-03T12:24:36.933Z,10.20
2023-04-03T12:27:12.250Z,10.60
2023-04-03T12:29:43.864Z,10.60
2023-04-03T12:32:20.626Z,10.20
2023-04-03T12:35:08.827Z,10.60
2023-04-03T12:37:52.729Z,10.40
2023-04-03T12:40:28.658Z,10.00
2023-04-03T12:43:20.327Z,10.30
2023-04-03T12:45:47.858Z,11.00
2023-04-03T12:48:18.080Z,10.50
2023-04-03T12:50:43.929Z,10.50
2023-04-03T12:53:14.745Z,10.80
2023-04-03T12:55:38.327Z,11.00
2023-04-03T12:58:18.064Z,11.00
2023-04-03T13:00:41.564Z,10.30
2023-04-03T13:03:07.646Z,10.10
2023-04-03T13:05:33.506Z,10.30
2023-04-03T13:08:02.974Z,10.80
2023-04-03T13:10:26.512Z,10.60
2023-04-03T13:12:52.954Z,10.50
2023-04-03T13:15:20.473Z,10.80
2023-04-03T13:17:44.974Z,10.80
2023-04-03T13:20:17.696Z,11.00
2023-04-03T13:22:49.664Z,10.80
2023-04-03T13:25:18.333Z,10.90
2023-04-03T13:27:44.822Z,10.80
2023-04-03T13:30:24.584Z,10.80
2023-04-03T13:32:47.883Z,10.60
2023-04-03T13:35:28.940Z,10.40
2023-04-03T13:37:57.356Z,10.50
2023-04-03T13:40:22.347Z,10.70
2023-04-03T13:42:45.929Z,10.90
2023-04-03T13:45:21.141Z,10.60
2023-04-03T13:47:46.854Z,10.80
2023-04-03T13:50:20.752Z,10.80
2023-04-03T13:52:49.111Z,10.20
2023-04-03T13:55:26.226Z,10.30
2023-04-03T13:57:58.298Z,10.60
2023-04-03T14:00:38.309Z,11.00
2023-04-03T14:03:01.858Z,10.70
2023-04-03T14:05:26.337Z,10.90
2023-04-03T14:07:49.632Z,10.90
2023-04-03T14:10:12.948Z,10.40
2023-04-03T14:12:41.629Z,10.20
2023-04-03T14:15:17.343Z,9.90
2023-04-03T14:17:41.040Z,10.20
2023-04-03T14:20:05.530Z,10.50
2023-04-03T14:22:32.621Z,10.60
2023-04-03T14:24:56.149Z,10.00
2023-04-03T14:27:22.305Z,9.80
2023-04-03T14:29:47.466Z,10.30
2023-04-03T14:32:15.249Z,10.40
2023-04-03T14:34:38.643Z,10.50
2023-04-03T14:37:02.004Z,10.40
2023-04-03T14:39:25.839Z,10.50
2023-04-03T14:41:49.593Z,10.70
2023-04-03T14:44:13.050Z,11.00
2023-04-03T14:46:55.636Z,10.50
2023-04-03T14:49:24.094Z,10.20
2023-04-03T14:51:47.409Z,10.10
2023-04-03T14:54:16.416Z,10.70
2023-04-03T14:56:39.730Z,10.10
2023-04-03T14:59:04.669Z,10.80
2023-04-03T15:01:28.559Z,11.00
2023-04-03T15:03:53.632Z,10.20
2023-04-03T15:06:17.923Z,10.10
2023-04-03T15:08:42.800Z,10.00
2023-04-03T15:11:07.172Z,10.20
2023-04-03T15:13:30.552Z,10.60
2023-04-03T15:15:54.440Z,10.00
2023-04-03T15:18:22.336Z,10.10
2023-04-03T15:20:48.382Z,10.50
2023-04-03T15:23:15.265Z,10.80
2023-04-03T15:25:38.658Z,11.00
2023-04-03T15:28:02.823Z,10.60
2023-04-03T15:30:26.100Z,10.20
2023-04-03T15:32:50.340Z,10.00
2023-04-03T15:35:13.871Z,9.50
2023-04-03T15:37:38.718Z,10.00
2023-04-03T15:40:02.114Z,10.00
2023-04-03T15:42:25.719Z,10.20
2023-04-03T15:44:48.931Z,10.60
2023-04-03T15:47:14.026Z,10.00
2023-04-03T15:49:38.131Z,9.90
2023-04-03T15:52:01.856Z,9.90
2023-04-03T15:54:26.538Z,9.50
2023-04-03T15:56:50.564Z,9.50
2023-04-03T15:59:13.940Z,9.70
2023-04-03T16:01:38.383Z,9.80
2023-04-03T16:04:02.023Z,9.30
2023-04-03T16:06:30.273Z,9.90
2023-04-03T16:08:57.892Z,9.70
2023-04-03T16:11:23.096Z,10.40
2023-04-03T16:13:46.418Z,10.10
2023-04-03T16:16:10.279Z,9.90
2023-04-03T16:18:34.435Z,10.40
2023-04-03T16:20:57.771Z,10.40
2023-04-03T16:23:21.727Z,9.80
2023-04-03T16:25:47.197Z,9.20
2023-04-03T16:28:12.536Z,9.90
2023-04-03T16:30:35.942Z,9.30
2023-04-03T16:32:59.434Z,9.80
2023-04-03T16:35:22.908Z,9.70
2023-04-03T16:37:46.209Z,9.40
2023-04-03T16:40:10.921Z,9.40
2023-04-03T16:42:36.538Z,9.40
2023-04-03T16:45:04.500Z,9.10
2023-04-03T16:47:27.923Z,9.00
2023-04-03T16:49:51.240Z,8.80
2023-04-03T16:52:15.124Z,9.00
2023-04-03T16:54:38.644Z,8.70
2023-04-03T16:57:01.949Z,8.50
2023-04-03T16:59:25.605Z,8.50
2023-04-03T17:01:50.396Z,8.50
2023-04-03T17:04:13.798Z,8.30
2023-04-03T17:06:37.326Z,8.40
2023-04-03T17:09:00.653Z,8.50
2023-04-03T17:11:24.278Z,8.40
2023-04-03T17:13:47.557Z,8.30
2023-04-03T17:16:14.467Z,8.40
2023-04-03T17:18:39.849Z,8.20
2023-04-03T17:21:03.582Z,8.10
2023-04-03T17:23:29.180Z,8.00
2023-04-03T17:25:52.463Z,8.00
2023-04-03T17:28:15.925Z,8.00
2023-04-03T17:30:39.176Z,8.00
2023-04-03T17:33:02.502Z,7.80
2023-04-03T17:35:27.217Z,7.80
2023-04-03T17:37:51.367Z,7.70
2023-04-03T17:40:15.063Z,7.70
2023-04-03T17:42:38.429Z,7.70
2023-04-03T17:45:02.011Z,7.60
2023-04-03T17:47:26.333Z,7.60
2023-04-03T17:49:49.626Z,7.70
2023-04-03T17:52:14.284Z,7.60
2023-04-03T17:54:37.638Z,7.50
2023-04-03T17:57:00.969Z,7.40
2023-04-03T17:59:24.336Z,7.40
2023-04-03T18:01:48.462Z,7.30
2023-04-03T18:04:11.853Z,7.30
2023-04-03T18:06:42.666Z,7.20
2023-04-03T18:09:11.630Z,7.10
2023-04-03T18:11:35.882Z,7.10
2023-04-03T18:14:02.666Z,7.10
2023-04-03T18:16:26.141Z,7.00
2023-04-03T18:18:54.040Z,7.00
2023-04-03T18:21:25.772Z,6.90
2023-04-03T18:23:52.836Z,7.00
2023-04-03T18:26:19.845Z,7.00
2023-04-03T18:28:47.915Z,6.90
2023-04-03T18:31:13.242Z,6.80
2023-04-03T18:33:36.550Z,6.80
2023-04-03T18:35:59.817Z,6.70
2023-04-03T18:38:23.310Z,6.70
2023-04-03T18:40:47.426Z,6.60
2023-04-03T18:43:13.465Z,6.70
2023-04-03T18:45:36.807Z,6.60
2023-04-03T18:48:00.567Z,6.50
2023-04-03T18:50:23.987Z,6.50
2023-04-03T18:52:50.597Z,6.50
2023-04-03T18:55:15.743Z,6.50
2023-04-03T18:57:39.072Z,6.40
2023-04-03T19:00:04.802Z,6.50
2023-04-03T19:02:28.210Z,6.40
2023-04-03T19:04:52.760Z,6.40
2023-04-03T19:07:16.028Z,6.40
2023-04-03T19:09:39.738Z,6.30
2023-04-03T19:12:03.106Z,6.20
2023-04-03T19:14:26.381Z,6.20
2023-04-03T19:16:51.659Z,6.20
2023-04-03T19:19:14.973Z,6.20
2023-04-03T19:21:41.129Z,6.10
2023-04-03T19:24:04.961Z,6.10
2023-04-03T19:26:28.439Z,6.10
2023-04-03T19:28:51.782Z,6.10
2023-04-03T19:31:17.277Z,6.10
2023-04-03T19:33:42.213Z,6.00
2023-04-03T19:36:06.768Z,6.00
2023-04-03T19:38:30.038Z,6.00
2023-04-03T19:40:53.640Z,6.00
2023-04-03T19:43:18.255Z,5.90
2023-04-03T19:45:43.797Z,5.90
2023-04-03T19:48:08.010Z,5.80
2023-04-03T19:50:33.866Z,5.80
2023-04-03T19:52:57.117Z,5.80
2023-04-03T19:55:20.535Z,5.80
2023-04-03T19:57:43.804Z,5.70
2023-04-03T20:00:08.886Z,5.60
2023-04-03T20:02:34.675Z,5.70
2023-04-03T20:04:57.986Z,5.60
2023-04-03T20:07:22.902Z,5.60
2023-04-03T20:09:46.202Z,5.60
2023-04-03T20:12:10.708Z,5.60
2023-04-03T20:14:33.958Z,5.50
2023-04-03T20:16:57.351Z,5.50
2023-04-03T20:19:21.669Z,5.50
2023-04-03T20:21:45.107Z,5.50
2023-04-03T20:24:12.024Z,5.40
2023-04-03T20:26:43.668Z,5.40
2023-04-03T20:29:07.489Z,5.40
2023-04-03T20:31:32.829Z,5.30
2023-04-03T20:33:56.841Z,5.30
2023-04-03T20:36:21.738Z,5.20
2023-04-03T20:38:46.141Z,5.20
2023-04-03T20:41:11.349Z,5.10
2023-04-03T20:43:35.243Z,5.10
2023-04-03T20:46:01.546Z,5.00
2023-04-03T20:48:24.916Z,5.00
2023-04-03T20:50:48.348Z,5.00
2023-04-03T20:53:12.207Z,5.00
2023-04-03T20:55:35.647Z,4.80
2023-04-03T20:58:02.040Z,4.80
2023-04-03T21:00:26.024Z,4.80
2023-04-03T21:02:49.517Z,4.70
2023-04-03T21:05:13.556Z,4.80
2023-04-03T21:08:33.378Z,4.80
2023-04-03T21:11:53.000Z,4.70
2023-04-03T21:15:13.686Z,4.70
2023-04-03T21:17:36.631Z,4.70
2023-04-03T21:20:01.571Z,4.60
2023-04-03T21:22:24.962Z,4.50
2023-04-03T21:24:48.500Z,4.40
2023-04-03T21:27:11.861Z,4.50
2023-04-03T21:29:35.115Z,4.40
2023-04-03T21:32:00.040Z,4.40
2023-04-03T21:34:25.926Z,4.30
2023-04-03T21:36:51.702Z,4.20
2023-04-03T21:39:15.123Z,4.30
2023-04-03T21:41:38.547Z,4.30
2023-04-03T21:44:02.315Z,4.20
2023-04-03T21:46:25.758Z,4.20
2023-04-03T21:48:49.141Z,4.20
2023-04-03T21:51:12.396Z,4.20
2023-04-03T21:53:37.167Z,4.20
2023-04-03T21:56:02.478Z,4.20
2023-04-03T21:58:31.939Z,4.10
2023-04-03T22:00:55.623Z,4.10
2023-04-03T22:03:23.094Z,4.00
2023-04-03T22:05:46.464Z,4.00
2023-04-03T22:08:09.746Z,3.90
2023-04-03T22:10:34.383Z,3.90
2023-04-03T22:12:57.689Z,3.90
2023-04-03T22:15:22.358Z,3.80
2023-04-03T22:17:45.717Z,3.80
2023-04-03T22:20:11.130Z,3.80
2023-04-03T22:22:34.461Z,3.80
2023-04-03T22:24:57.694Z,3.80
2023-04-03T22:27:22.344Z,3.70
2023-04-03T22:29:45.599Z,3.50
2023-04-03T22:32:08.974Z,3.50
2023-04-03T22:34:32.328Z,3.50
2023-04-03T22:36:55.799Z,3.50
2023-04-03T22:39:19.400Z,3.40
2023-04-03T22:41:45.241Z,3.30
2023-04-03T22:44:10.940Z,3.30
2023-04-03T22:46:34.937Z,3.30
2023-04-03T22:48:58.840Z,3.20
2023-04-03T22:51:22.476Z,3.20
2023-04-03T22:53:45.881Z,3.20
2023-04-03T22:56:10.954Z,3.10
2023-04-03T22:58:34.541Z,3.10
2023-04-03T23:01:08.035Z,3.10
2023-04-03T23:03:31.562Z,3.10
2023-04-03T23:05:56.227Z,3.10
2023-04-03T23:08:22.816Z,3.10
2023-04-03T23:10:46.219Z,3.00
2023-04-03T23:13:09.447Z,3.00
2023-04-03T23:15:32.797Z,2.90
2023-04-03T23:17:57.436Z,2.80
2023-04-03T23:20:20.760Z,2.80
2023-04-03T23:22:45.146Z,2.70
2023-04-03T23:25:09.265Z,2.70
2023-04-03T23:27:32.548Z,2.60
2023-04-03T23:29:56.410Z,2.60
2023-04-03T23:32:19.962Z,2.50
2023-04-03T23:34:44.586Z,2.50
2023-04-03T23:37:08.747Z,2.50
2023-04-03T23:39:33.088Z,2.50
2023-04-03T23:41:56.444Z,2.50
2023-04-03T23:44:19.690Z,2.50
2023-04-03T23:46:42.941Z,2.50
2023-04-03T23:49:06.603Z,2.50
2023-04-03T23:51:31.195Z,2.50
2023-04-03T23:53:54.494Z,2.50
2023-04-03T23:56:17.797Z,2.50
2023-04-03T23:58:41.112Z,2.50
